SBCZ/CZS METAR and TAF weather

Enter ICAO airport designator
Station Type Date Time Source
SBCZ METAR 2019/12/07 23:00 UTC NOAA

SBCZ 072300Z 34002KT 9999 FEW030 SCT100 28/24 Q1008


Station Type Date Time Source
SBCZ Decoded METAR 2019/12/07 23:00 UTC NOAA

Cruzeiro Do Sul, Brazil (SBCZ) 07-38S 072-40W
Dec 07, 2019 - 06:00 PM EST / 2019.12.07 2300 UTC
Wind: from the NNW (340 degrees) at 2 MPH (2 KT):0
Visibility: greater than 7 mile(s):0
Sky conditions: partly cloudy
Temperature: 82 F (28 C)
Dew Point: 75 F (24 C)
Relative Humidity: 78%
Pressure (altimeter): 29.77 in. Hg (1008 hPa)
ob: SBCZ 072300Z 34002KT 9999 FEW030 SCT100 28/24 Q1008
cycle: 23

Station Type Date Time Source
SBCZ TAF 2019/09/19 12:09 UTC NOAA

TAF SBCZ 190900Z 1912/2012 27005KT 9999 FEW020 FEW025TCU TX34/1919Z TN23/2006Z PROB30
TEMPO 1912/1916 4000 TSRA BKN020 FEW025CB
BECMG 1916/1918 27005KT
BECMG 1923/2001 00000KT CAVOK PROB30 2006/2012 4000 BR
RMK PGZ

Example: see airport list